sensor_id;sensor_type;location;lat;lon;timestamp;P1;durP1;ratioP1;P2;durP2;ratioP2
71202;SDS011;58929;47.490;19.090;2023-11-19T00:00:35;10.70;;;4.97;;
71202;SDS011;58929;47.490;19.090;2023-11-19T00:03:05;9.88;;;4.88;;
71202;SDS011;58929;47.490;19.090;2023-11-19T00:05:33;9.30;;;4.75;;
71202;SDS011;58929;47.490;19.090;2023-11-19T00:08:01;8.52;;;4.88;;
71202;SDS011;58929;47.490;19.090;2023-11-19T00:10:29;10.07;;;4.30;;
71202;SDS011;58929;47.490;19.090;2023-11-19T00:12:57;8.55;;;4.55;;
71202;SDS011;58929;47.490;19.090;2023-11-19T00:15:25;13.50;;;6.43;;
71202;SDS011;58929;47.490;19.090;2023-11-19T00:17:53;10.57;;;5.30;;
71202;SDS011;58929;47.490;19.090;2023-11-19T00:20:26;16.52;;;5.60;;
71202;SDS011;58929;47.490;19.090;2023-11-19T00:22:54;10.60;;;4.50;;
71202;SDS011;58929;47.490;19.090;2023-11-19T00:25:22;6.93;;;3.97;;
71202;SDS011;58929;47.490;19.090;2023-11-19T00:27:50;8.32;;;4.47;;
71202;SDS011;58929;47.490;19.090;2023-11-19T00:30:20;9.27;;;4.60;;
71202;SDS011;58929;47.490;19.090;2023-11-19T00:32:50;8.27;;;4.35;;
71202;SDS011;58929;47.490;19.090;2023-11-19T00:35:18;8.65;;;4.68;;
71202;SDS011;58929;47.490;19.090;2023-11-19T00:37:47;9.75;;;4.22;;
71202;SDS011;58929;47.490;19.090;2023-11-19T00:40:16;10.48;;;4.13;;
71202;SDS011;58929;47.490;19.090;2023-11-19T00:42:46;13.65;;;5.03;;
71202;SDS011;58929;47.490;19.090;2023-11-19T00:45:14;9.40;;;4.30;;
71202;SDS011;58929;47.490;19.090;2023-11-19T00:47:42;11.55;;;5.20;;
71202;SDS011;58929;47.490;19.090;2023-11-19T00:50:10;8.82;;;4.35;;
71202;SDS011;58929;47.490;19.090;2023-11-19T00:52:39;9.98;;;4.00;;
71202;SDS011;58929;47.490;19.090;2023-11-19T00:55:10;8.93;;;4.15;;
71202;SDS011;58929;47.490;19.090;2023-11-19T00:57:39;8.88;;;4.13;;
71202;SDS011;58929;47.490;19.090;2023-11-19T01:00:08;7.63;;;4.05;;
71202;SDS011;58929;47.490;19.090;2023-11-19T01:02:46;10.60;;;4.93;;
71202;SDS011;58929;47.490;19.090;2023-11-19T01:05:16;6.82;;;4.38;;
71202;SDS011;58929;47.490;19.090;2023-11-19T01:07:48;9.73;;;4.70;;
71202;SDS011;58929;47.490;19.090;2023-11-19T01:10:18;10.93;;;5.28;;
71202;SDS011;58929;47.490;19.090;2023-11-19T01:12:47;12.18;;;5.22;;
71202;SDS011;58929;47.490;19.090;2023-11-19T01:15:14;9.75;;;5.22;;
71202;SDS011;58929;47.490;19.090;2023-11-19T01:17:45;11.88;;;5.60;;
71202;SDS011;58929;47.490;19.090;2023-11-19T01:20:16;8.52;;;4.93;;
71202;SDS011;58929;47.490;19.090;2023-11-19T01:22:44;20.42;;;6.00;;
71202;SDS011;58929;47.490;19.090;2023-11-19T01:25:17;13.95;;;5.57;;
71202;SDS011;58929;47.490;19.090;2023-11-19T01:27:46;14.65;;;4.88;;
71202;SDS011;58929;47.490;19.090;2023-11-19T01:30:14;9.18;;;5.00;;
71202;SDS011;58929;47.490;19.090;2023-11-19T01:32:42;13.20;;;5.72;;
71202;SDS011;58929;47.490;19.090;2023-11-19T01:35:10;12.73;;;5.90;;
71202;SDS011;58929;47.490;19.090;2023-11-19T01:37:41;15.25;;;5.43;;
71202;SDS011;58929;47.490;19.090;2023-11-19T01:40:09;15.48;;;6.38;;
71202;SDS011;58929;47.490;19.090;2023-11-19T01:42:40;18.25;;;5.78;;
71202;SDS011;58929;47.490;19.090;2023-11-19T01:45:08;14.30;;;6.10;;
71202;SDS011;58929;47.490;19.090;2023-11-19T01:47:37;11.45;;;5.50;;
71202;SDS011;58929;47.490;19.090;2023-11-19T01:50:06;14.23;;;6.80;;
71202;SDS011;58929;47.490;19.090;2023-11-19T01:52:35;16.70;;;6.70;;
71202;SDS011;58929;47.490;19.090;2023-11-19T01:55:04;17.75;;;6.07;;
71202;SDS011;58929;47.490;19.090;2023-11-19T01:57:33;22.30;;;6.80;;
71202;SDS011;58929;47.490;19.090;2023-11-19T02:00:03;18.88;;;7.07;;
71202;SDS011;58929;47.490;19.090;2023-11-19T02:02:39;16.17;;;7.93;;
71202;SDS011;58929;47.490;19.090;2023-11-19T02:05:08;14.13;;;6.90;;
71202;SDS011;58929;47.490;19.090;2023-11-19T02:07:36;18.48;;;7.93;;
71202;SDS011;58929;47.490;19.090;2023-11-19T02:10:04;12.80;;;6.20;;
71202;SDS011;58929;47.490;19.090;2023-11-19T02:12:34;15.23;;;7.30;;
71202;SDS011;58929;47.490;19.090;2023-11-19T02:15:05;16.83;;;7.85;;
71202;SDS011;58929;47.490;19.090;2023-11-19T02:17:33;19.52;;;7.45;;
71202;SDS011;58929;47.490;19.090;2023-11-19T02:20:04;17.15;;;7.05;;
71202;SDS011;58929;47.490;19.090;2023-11-19T02:22:33;31.27;;;13.57;;
71202;SDS011;58929;47.490;19.090;2023-11-19T02:25:04;14.20;;;7.07;;
71202;SDS011;58929;47.490;19.090;2023-11-19T02:30:24;17.05;;;7.05;;
71202;SDS011;58929;47.490;19.090;2023-11-19T02:32:53;15.68;;;6.20;;
71202;SDS011;58929;47.490;19.090;2023-11-19T02:35:24;15.00;;;7.13;;
71202;SDS011;58929;47.490;19.090;2023-11-19T02:37:53;14.27;;;6.43;;
71202;SDS011;58929;47.490;19.090;2023-11-19T02:40:21;14.90;;;6.20;;
71202;SDS011;58929;47.490;19.090;2023-11-19T02:42:51;19.08;;;7.20;;
71202;SDS011;58929;47.490;19.090;2023-11-19T02:45:19;15.32;;;6.88;;
71202;SDS011;58929;47.490;19.090;2023-11-19T02:47:50;14.13;;;6.25;;
71202;SDS011;58929;47.490;19.090;2023-11-19T02:50:18;12.70;;;5.85;;
71202;SDS011;58929;47.490;19.090;2023-11-19T02:52:52;15.25;;;7.07;;
71202;SDS011;58929;47.490;19.090;2023-11-19T02:55:21;15.63;;;7.13;;
71202;SDS011;58929;47.490;19.090;2023-11-19T02:57:50;15.02;;;6.80;;
71202;SDS011;58929;47.490;19.090;2023-11-19T03:00:20;15.75;;;7.57;;
71202;SDS011;58929;47.490;19.090;2023-11-19T03:02:59;16.00;;;6.60;;
71202;SDS011;58929;47.490;19.090;2023-11-19T03:05:37;17.85;;;5.75;;
71202;SDS011;58929;47.490;19.090;2023-11-19T03:08:07;13.43;;;6.63;;
71202;SDS011;58929;47.490;19.090;2023-11-19T03:10:35;15.55;;;6.60;;
71202;SDS011;58929;47.490;19.090;2023-11-19T03:13:02;15.05;;;7.53;;
71202;SDS011;58929;47.490;19.090;2023-11-19T03:15:30;16.20;;;6.50;;
71202;SDS011;58929;47.490;19.090;2023-11-19T03:18:00;12.63;;;6.55;;
71202;SDS011;58929;47.490;19.090;2023-11-19T03:20:28;14.70;;;7.00;;
71202;SDS011;58929;47.490;19.090;2023-11-19T03:22:56;15.10;;;6.13;;
71202;SDS011;58929;47.490;19.090;2023-11-19T03:25:25;15.25;;;6.78;;
71202;SDS011;58929;47.490;19.090;2023-11-19T03:27:53;14.75;;;6.80;;
71202;SDS011;58929;47.490;19.090;2023-11-19T03:30:21;14.68;;;6.53;;
71202;SDS011;58929;47.490;19.090;2023-11-19T03:33:01;17.30;;;7.28;;
71202;SDS011;58929;47.490;19.090;2023-11-19T03:35:29;14.57;;;7.05;;
71202;SDS011;58929;47.490;19.090;2023-11-19T03:37:59;13.43;;;6.90;;
71202;SDS011;58929;47.490;19.090;2023-11-19T03:40:28;16.70;;;6.72;;
71202;SDS011;58929;47.490;19.090;2023-11-19T03:42:56;13.85;;;6.97;;
71202;SDS011;58929;47.490;19.090;2023-11-19T03:45:24;16.38;;;6.78;;
71202;SDS011;58929;47.490;19.090;2023-11-19T03:47:52;15.07;;;6.53;;
71202;SDS011;58929;47.490;19.090;2023-11-19T03:50:21;18.80;;;6.97;;
71202;SDS011;58929;47.490;19.090;2023-11-19T03:52:50;15.65;;;6.90;;
71202;SDS011;58929;47.490;19.090;2023-11-19T03:55:19;13.85;;;6.78;;
71202;SDS011;58929;47.490;19.090;2023-11-19T03:57:47;13.77;;;6.40;;
71202;SDS011;58929;47.490;19.090;2023-11-19T04:00:15;21.50;;;7.70;;
71202;SDS011;58929;47.490;19.090;2023-11-19T04:02:43;15.95;;;6.72;;
71202;SDS011;58929;47.490;19.090;2023-11-19T04:05:13;20.58;;;7.90;;
71202;SDS011;58929;47.490;19.090;2023-11-19T04:07:43;15.63;;;7.63;;
71202;SDS011;58929;47.490;19.090;2023-11-19T04:10:11;15.25;;;7.78;;
71202;SDS011;58929;47.490;19.090;2023-11-19T04:12:39;17.45;;;7.30;;
71202;SDS011;58929;47.490;19.090;2023-11-19T04:15:07;14.95;;;6.88;;
71202;SDS011;58929;47.490;19.090;2023-11-19T04:17:38;21.48;;;7.15;;
71202;SDS011;58929;47.490;19.090;2023-11-19T04:20:07;13.95;;;7.15;;
71202;SDS011;58929;47.490;19.090;2023-11-19T04:22:37;18.58;;;8.15;;
71202;SDS011;58929;47.490;19.090;2023-11-19T04:25:07;16.55;;;7.20;;
71202;SDS011;58929;47.490;19.090;2023-11-19T04:27:36;15.98;;;7.03;;
71202;SDS011;58929;47.490;19.090;2023-11-19T04:30:04;18.85;;;7.18;;
71202;SDS011;58929;47.490;19.090;2023-11-19T04:32:37;15.93;;;7.25;;
71202;SDS011;58929;47.490;19.090;2023-11-19T04:35:05;15.45;;;7.55;;
71202;SDS011;58929;47.490;19.090;2023-11-19T04:37:34;18.08;;;7.55;;
71202;SDS011;58929;47.490;19.090;2023-11-19T04:40:02;24.67;;;7.65;;
71202;SDS011;58929;47.490;19.090;2023-11-19T04:42:32;14.60;;;7.47;;
71202;SDS011;58929;47.490;19.090;2023-11-19T04:45:00;24.98;;;8.98;;
71202;SDS011;58929;47.490;19.090;2023-11-19T04:47:28;21.45;;;8.55;;
71202;SDS011;58929;47.490;19.090;2023-11-19T04:49:56;18.92;;;7.63;;
71202;SDS011;58929;47.490;19.090;2023-11-19T04:52:24;18.65;;;8.73;;
71202;SDS011;58929;47.490;19.090;2023-11-19T04:54:52;17.88;;;8.18;;
71202;SDS011;58929;47.490;19.090;2023-11-19T04:57:20;12.23;;;7.07;;
71202;SDS011;58929;47.490;19.090;2023-11-19T04:59:49;15.02;;;7.03;;
71202;SDS011;58929;47.490;19.090;2023-11-19T05:02:17;20.50;;;8.60;;
71202;SDS011;58929;47.490;19.090;2023-11-19T05:04:45;19.95;;;7.90;;
71202;SDS011;58929;47.490;19.090;2023-11-19T05:07:15;18.33;;;7.90;;
71202;SDS011;58929;47.490;19.090;2023-11-19T05:09:44;21.25;;;8.32;;
71202;SDS011;58929;47.490;19.090;2023-11-19T05:12:11;19.23;;;8.45;;
71202;SDS011;58929;47.490;19.090;2023-11-19T05:14:39;19.77;;;8.50;;
71202;SDS011;58929;47.490;19.090;2023-11-19T05:17:11;16.15;;;7.55;;
71202;SDS011;58929;47.490;19.090;2023-11-19T05:19:39;17.92;;;7.78;;
71202;SDS011;58929;47.490;19.090;2023-11-19T05:22:07;16.33;;;7.45;;
71202;SDS011;58929;47.490;19.090;2023-11-19T05:24:36;23.05;;;8.38;;
71202;SDS011;58929;47.490;19.090;2023-11-19T05:27:04;20.77;;;7.65;;
71202;SDS011;58929;47.490;19.090;2023-11-19T05:29:33;19.77;;;8.85;;
71202;SDS011;58929;47.490;19.090;2023-11-19T05:32:01;32.33;;;12.45;;
71202;SDS011;58929;47.490;19.090;2023-11-19T05:34:31;20.05;;;7.88;;
71202;SDS011;58929;47.490;19.090;2023-11-19T05:36:59;23.05;;;7.72;;
71202;SDS011;58929;47.490;19.090;2023-11-19T05:39:27;19.25;;;8.38;;
71202;SDS011;58929;47.490;19.090;2023-11-19T05:41:58;17.13;;;8.25;;
71202;SDS011;58929;47.490;19.090;2023-11-19T05:44:26;16.85;;;8.05;;
71202;SDS011;58929;47.490;19.090;2023-11-19T05:46:54;22.73;;;9.80;;
71202;SDS011;58929;47.490;19.090;2023-11-19T05:49:22;20.63;;;9.73;;
71202;SDS011;58929;47.490;19.090;2023-11-19T05:51:52;20.52;;;7.90;;
71202;SDS011;58929;47.490;19.090;2023-11-19T05:54:22;18.77;;;8.65;;
71202;SDS011;58929;47.490;19.090;2023-11-19T05:56:50;18.25;;;9.73;;
71202;SDS011;58929;47.490;19.090;2023-11-19T05:59:20;20.30;;;7.97;;
71202;SDS011;58929;47.490;19.090;2023-11-19T06:01:49;21.70;;;9.80;;
71202;SDS011;58929;47.490;19.090;2023-11-19T06:04:17;23.42;;;10.07;;
71202;SDS011;58929;47.490;19.090;2023-11-19T06:06:46;20.13;;;8.95;;
71202;SDS011;58929;47.490;19.090;2023-11-19T06:09:15;23.58;;;9.13;;
71202;SDS011;58929;47.490;19.090;2023-11-19T06:11:45;20.33;;;9.48;;
71202;SDS011;58929;47.490;19.090;2023-11-19T06:14:13;21.95;;;10.35;;
71202;SDS011;58929;47.490;19.090;2023-11-19T06:16:41;23.08;;;10.00;;
71202;SDS011;58929;47.490;19.090;2023-11-19T06:19:17;22.30;;;10.70;;
71202;SDS011;58929;47.490;19.090;2023-11-19T06:21:46;22.80;;;9.32;;
71202;SDS011;58929;47.490;19.090;2023-11-19T06:24:14;22.08;;;10.45;;
71202;SDS011;58929;47.490;19.090;2023-11-19T06:26:43;23.92;;;9.80;;
71202;SDS011;58929;47.490;19.090;2023-11-19T06:29:11;21.55;;;9.38;;
71202;SDS011;58929;47.490;19.090;2023-11-19T06:31:45;17.77;;;9.00;;
71202;SDS011;58929;47.490;19.090;2023-11-19T06:34:15;22.02;;;9.43;;
71202;SDS011;58929;47.490;19.090;2023-11-19T06:36:43;23.90;;;9.10;;
71202;SDS011;58929;47.490;19.090;2023-11-19T06:39:11;26.48;;;12.20;;
71202;SDS011;58929;47.490;19.090;2023-11-19T06:41:39;17.77;;;8.18;;
71202;SDS011;58929;47.490;19.090;2023-11-19T06:44:08;25.83;;;10.02;;
71202;SDS011;58929;47.490;19.090;2023-11-19T06:46:36;17.80;;;9.48;;
71202;SDS011;58929;47.490;19.090;2023-11-19T06:49:04;22.63;;;8.60;;
71202;SDS011;58929;47.490;19.090;2023-11-19T06:51:34;17.00;;;8.60;;
71202;SDS011;58929;47.490;19.090;2023-11-19T06:54:02;19.70;;;9.35;;
71202;SDS011;58929;47.490;19.090;2023-11-19T06:56:30;20.25;;;9.25;;
71202;SDS011;58929;47.490;19.090;2023-11-19T06:58:58;23.60;;;11.10;;
71202;SDS011;58929;47.490;19.090;2023-11-19T07:01:27;27.85;;;10.63;;
71202;SDS011;58929;47.490;19.090;2023-11-19T07:03:56;29.80;;;9.93;;
71202;SDS011;58929;47.490;19.090;2023-11-19T07:06:24;24.13;;;10.32;;
71202;SDS011;58929;47.490;19.090;2023-11-19T07:08:55;24.85;;;9.90;;
71202;SDS011;58929;47.490;19.090;2023-11-19T07:11:24;21.20;;;9.02;;
71202;SDS011;58929;47.490;19.090;2023-11-19T07:13:52;19.95;;;9.68;;
71202;SDS011;58929;47.490;19.090;2023-11-19T07:16:20;19.83;;;9.27;;
71202;SDS011;58929;47.490;19.090;2023-11-19T07:18:50;16.70;;;8.32;;
71202;SDS011;58929;47.490;19.090;2023-11-19T07:21:19;21.73;;;9.27;;
71202;SDS011;58929;47.490;19.090;2023-11-19T07:23:47;19.67;;;8.25;;
71202;SDS011;58929;47.490;19.090;2023-11-19T07:26:16;21.92;;;9.00;;
71202;SDS011;58929;47.490;19.090;2023-11-19T07:28:44;25.23;;;10.38;;
71202;SDS011;58929;47.490;19.090;2023-11-19T07:31:12;19.40;;;8.77;;
71202;SDS011;58929;47.490;19.090;2023-11-19T07:33:40;21.02;;;8.73;;
71202;SDS011;58929;47.490;19.090;2023-11-19T07:36:11;23.10;;;8.80;;
71202;SDS011;58929;47.490;19.090;2023-11-19T07:38:39;22.65;;;9.68;;
71202;SDS011;58929;47.490;19.090;2023-11-19T07:41:07;19.58;;;8.70;;
71202;SDS011;58929;47.490;19.090;2023-11-19T07:43:39;23.35;;;10.55;;
71202;SDS011;58929;47.490;19.090;2023-11-19T07:46:10;26.23;;;9.70;;
71202;SDS011;58929;47.490;19.090;2023-11-19T07:48:40;20.83;;;9.45;;
71202;SDS011;58929;47.490;19.090;2023-11-19T07:51:10;25.00;;;9.15;;
71202;SDS011;58929;47.490;19.090;2023-11-19T07:53:44;18.42;;;9.23;;
71202;SDS011;58929;47.490;19.090;2023-11-19T07:56:12;22.08;;;9.65;;
71202;SDS011;58929;47.490;19.090;2023-11-19T07:58:41;20.27;;;9.25;;
71202;SDS011;58929;47.490;19.090;2023-11-19T08:01:09;23.33;;;10.35;;
71202;SDS011;58929;47.490;19.090;2023-11-19T08:03:40;20.55;;;9.77;;
71202;SDS011;58929;47.490;19.090;2023-11-19T08:06:26;20.98;;;9.38;;
71202;SDS011;58929;47.490;19.090;2023-11-19T08:08:55;21.23;;;10.27;;
71202;SDS011;58929;47.490;19.090;2023-11-19T08:11:23;26.45;;;10.52;;
71202;SDS011;58929;47.490;19.090;2023-11-19T08:13:52;19.00;;;10.27;;
71202;SDS011;58929;47.490;19.090;2023-11-19T08:16:20;19.60;;;8.82;;
71202;SDS011;58929;47.490;19.090;2023-11-19T08:18:49;16.27;;;8.75;;
71202;SDS011;58929;47.490;19.090;2023-11-19T08:21:17;25.88;;;10.68;;
71202;SDS011;58929;47.490;19.090;2023-11-19T08:23:45;21.25;;;9.07;;
71202;SDS011;58929;47.490;19.090;2023-11-19T08:26:15;24.00;;;9.75;;
71202;SDS011;58929;47.490;19.090;2023-11-19T08:28:47;23.23;;;9.57;;
71202;SDS011;58929;47.490;19.090;2023-11-19T08:31:15;23.05;;;9.65;;
71202;SDS011;58929;47.490;19.090;2023-11-19T08:33:43;26.98;;;11.38;;
71202;SDS011;58929;47.490;19.090;2023-11-19T08:36:15;20.27;;;9.63;;
71202;SDS011;58929;47.490;19.090;2023-11-19T08:38:42;23.50;;;9.70;;
71202;SDS011;58929;47.490;19.090;2023-11-19T08:41:10;20.35;;;10.25;;
71202;SDS011;58929;47.490;19.090;2023-11-19T08:43:42;21.70;;;9.20;;
71202;SDS011;58929;47.490;19.090;2023-11-19T08:46:10;19.58;;;8.68;;
71202;SDS011;58929;47.490;19.090;2023-11-19T08:48:39;18.33;;;9.30;;
71202;SDS011;58929;47.490;19.090;2023-11-19T08:51:07;19.17;;;8.82;;
71202;SDS011;58929;47.490;19.090;2023-11-19T08:53:35;22.45;;;10.02;;
71202;SDS011;58929;47.490;19.090;2023-11-19T08:56:03;27.52;;;8.60;;
71202;SDS011;58929;47.490;19.090;2023-11-19T08:58:31;19.58;;;9.07;;
71202;SDS011;58929;47.490;19.090;2023-11-19T09:01:01;17.75;;;9.05;;
71202;SDS011;58929;47.490;19.090;2023-11-19T09:03:30;20.92;;;8.95;;
71202;SDS011;58929;47.490;19.090;2023-11-19T09:06:00;18.70;;;8.95;;
71202;SDS011;58929;47.490;19.090;2023-11-19T09:08:29;21.85;;;9.13;;
71202;SDS011;58929;47.490;19.090;2023-11-19T09:10:57;66.20;;;10.30;;
71202;SDS011;58929;47.490;19.090;2023-11-19T09:13:25;15.73;;;7.97;;
71202;SDS011;58929;47.490;19.090;2023-11-19T09:16:01;15.30;;;8.63;;
71202;SDS011;58929;47.490;19.090;2023-11-19T09:18:30;18.45;;;8.57;;
71202;SDS011;58929;47.490;19.090;2023-11-19T09:20:58;20.10;;;9.68;;
71202;SDS011;58929;47.490;19.090;2023-11-19T09:23:29;23.55;;;10.60;;
71202;SDS011;58929;47.490;19.090;2023-11-19T09:26:02;24.73;;;9.63;;
71202;SDS011;58929;47.490;19.090;2023-11-19T09:28:31;17.88;;;9.32;;
71202;SDS011;58929;47.490;19.090;2023-11-19T09:31:01;18.10;;;9.55;;
71202;SDS011;58929;47.490;19.090;2023-11-19T09:33:31;15.68;;;9.05;;
71202;SDS011;58929;47.490;19.090;2023-11-19T09:36:03;22.95;;;9.40;;
71202;SDS011;58929;47.490;19.090;2023-11-19T09:38:31;20.13;;;8.95;;
71202;SDS011;58929;47.490;19.090;2023-11-19T09:41:00;17.63;;;8.98;;
71202;SDS011;58929;47.490;19.090;2023-11-19T09:43:28;16.90;;;9.13;;
71202;SDS011;58929;47.490;19.090;2023-11-19T09:45:56;18.88;;;8.77;;
71202;SDS011;58929;47.490;19.090;2023-11-19T09:48:27;16.88;;;9.02;;
71202;SDS011;58929;47.490;19.090;2023-11-19T09:50:55;18.13;;;9.10;;
71202;SDS011;58929;47.490;19.090;2023-11-19T09:53:23;23.38;;;7.63;;
71202;SDS011;58929;47.490;19.090;2023-11-19T09:55:51;18.23;;;9.23;;
71202;SDS011;58929;47.490;19.090;2023-11-19T09:58:20;19.88;;;9.35;;
71202;SDS011;58929;47.490;19.090;2023-11-19T10:00:49;20.35;;;9.88;;
71202;SDS011;58929;47.490;19.090;2023-11-19T10:03:40;17.10;;;8.82;;
71202;SDS011;58929;47.490;19.090;2023-11-19T10:06:10;20.80;;;10.27;;
71202;SDS011;58929;47.490;19.090;2023-11-19T10:08:40;23.45;;;9.55;;
71202;SDS011;58929;47.490;19.090;2023-11-19T10:11:10;18.55;;;9.10;;
71202;SDS011;58929;47.490;19.090;2023-11-19T10:13:39;19.33;;;9.63;;
71202;SDS011;58929;47.490;19.090;2023-11-19T10:16:07;20.15;;;10.10;;
71202;SDS011;58929;47.490;19.090;2023-11-19T10:18:35;23.73;;;10.80;;
71202;SDS011;58929;47.490;19.090;2023-11-19T10:21:08;19.40;;;10.05;;
71202;SDS011;58929;47.490;19.090;2023-11-19T10:23:47;22.45;;;10.25;;
71202;SDS011;58929;47.490;19.090;2023-11-19T10:26:16;15.73;;;8.32;;
71202;SDS011;58929;47.490;19.090;2023-11-19T10:28:45;19.52;;;9.02;;
71202;SDS011;58929;47.490;19.090;2023-11-19T10:31:13;21.92;;;9.90;;
71202;SDS011;58929;47.490;19.090;2023-11-19T10:33:41;21.17;;;10.02;;
71202;SDS011;58929;47.490;19.090;2023-11-19T10:36:13;23.00;;;9.73;;
71202;SDS011;58929;47.490;19.090;2023-11-19T10:38:42;23.95;;;9.55;;
71202;SDS011;58929;47.490;19.090;2023-11-19T10:41:26;20.75;;;9.80;;
71202;SDS011;58929;47.490;19.090;2023-11-19T10:43:54;30.13;;;9.73;;
71202;SDS011;58929;47.490;19.090;2023-11-19T10:46:23;20.55;;;9.38;;
71202;SDS011;58929;47.490;19.090;2023-11-19T10:49:06;16.20;;;8.48;;
71202;SDS011;58929;47.490;19.090;2023-11-19T10:51:35;18.25;;;9.77;;
71202;SDS011;58929;47.490;19.090;2023-11-19T10:54:04;22.63;;;10.50;;
71202;SDS011;58929;47.490;19.090;2023-11-19T10:56:33;20.20;;;9.68;;
71202;SDS011;58929;47.490;19.090;2023-11-19T10:59:01;20.10;;;10.13;;
71202;SDS011;58929;47.490;19.090;2023-11-19T11:01:50;19.08;;;9.88;;
71202;SDS011;58929;47.490;19.090;2023-11-19T11:04:22;26.08;;;12.15;;
71202;SDS011;58929;47.490;19.090;2023-11-19T11:06:52;18.40;;;9.85;;
71202;SDS011;58929;47.490;19.090;2023-11-19T11:09:21;18.80;;;9.65;;
71202;SDS011;58929;47.490;19.090;2023-11-19T11:11:50;18.92;;;10.65;;
71202;SDS011;58929;47.490;19.090;2023-11-19T11:14:19;20.95;;;10.93;;
71202;SDS011;58929;47.490;19.090;2023-11-19T11:16:48;26.75;;;11.70;;
71202;SDS011;58929;47.490;19.090;2023-11-19T11:19:17;21.17;;;9.93;;
71202;SDS011;58929;47.490;19.090;2023-11-19T11:21:46;24.98;;;12.05;;
71202;SDS011;58929;47.490;19.090;2023-11-19T11:27:16;15.25;;;7.95;;
71202;SDS011;58929;47.490;19.090;2023-11-19T11:29:51;16.40;;;7.95;;
71202;SDS011;58929;47.490;19.090;2023-11-19T11:32:28;18.98;;;6.75;;
71202;SDS011;58929;47.490;19.090;2023-11-19T11:35:08;18.42;;;8.02;;
71202;SDS011;58929;47.490;19.090;2023-11-19T11:37:43;14.75;;;7.50;;
71202;SDS011;58929;47.490;19.090;2023-11-19T11:40:14;13.93;;;7.82;;
71202;SDS011;58929;47.490;19.090;2023-11-19T11:42:44;14.57;;;7.35;;
71202;SDS011;58929;47.490;19.090;2023-11-19T11:45:13;18.63;;;7.50;;
71202;SDS011;58929;47.490;19.090;2023-11-19T11:50:51;32.47;;;7.18;;
71202;SDS011;58929;47.490;19.090;2023-11-19T11:53:21;17.25;;;7.22;;
71202;SDS011;58929;47.490;19.090;2023-11-19T11:55:57;12.98;;;6.07;;
71202;SDS011;58929;47.490;19.090;2023-11-19T12:00:59;16.02;;;7.07;;
71202;SDS011;58929;47.490;19.090;2023-11-19T12:03:37;15.25;;;6.90;;
71202;SDS011;58929;47.490;19.090;2023-11-19T12:06:05;13.18;;;6.68;;
71202;SDS011;58929;47.490;19.090;2023-11-19T12:08:35;15.50;;;6.55;;
71202;SDS011;58929;47.490;19.090;2023-11-19T12:11:19;14.82;;;6.22;;
71202;SDS011;58929;47.490;19.090;2023-11-19T12:13:57;17.60;;;8.43;;
71202;SDS011;58929;47.490;19.090;2023-11-19T12:16:31;15.32;;;8.32;;
71202;SDS011;58929;47.490;19.090;2023-11-19T12:19:04;11.85;;;7.20;;
71202;SDS011;58929;47.490;19.090;2023-11-19T12:21:33;15.23;;;7.95;;
71202;SDS011;58929;47.490;19.090;2023-11-19T12:24:04;12.93;;;6.28;;
71202;SDS011;58929;47.490;19.090;2023-11-19T12:26:35;14.00;;;7.28;;
71202;SDS011;58929;47.490;19.090;2023-11-19T12:29:03;12.57;;;6.28;;
71202;SDS011;58929;47.490;19.090;2023-11-19T12:31:36;15.77;;;6.70;;
71202;SDS011;58929;47.490;19.090;2023-11-19T12:34:05;16.77;;;7.30;;
71202;SDS011;58929;47.490;19.090;2023-11-19T12:36:34;13.23;;;6.50;;
71202;SDS011;58929;47.490;19.090;2023-11-19T12:39:04;20.75;;;8.15;;
71202;SDS011;58929;47.490;19.090;2023-11-19T12:41:35;16.13;;;7.38;;
71202;SDS011;58929;47.490;19.090;2023-11-19T12:44:16;13.60;;;6.85;;
71202;SDS011;58929;47.490;19.090;2023-11-19T12:46:45;13.00;;;7.25;;
71202;SDS011;58929;47.490;19.090;2023-11-19T12:49:13;18.88;;;6.63;;
71202;SDS011;58929;47.490;19.090;2023-11-19T12:51:41;12.73;;;6.40;;
71202;SDS011;58929;47.490;19.090;2023-11-19T12:54:09;16.02;;;7.00;;
71202;SDS011;58929;47.490;19.090;2023-11-19T12:56:39;14.45;;;6.68;;
71202;SDS011;58929;47.490;19.090;2023-11-19T12:59:11;13.40;;;6.10;;
71202;SDS011;58929;47.490;19.090;2023-11-19T13:01:39;16.95;;;7.82;;
71202;SDS011;58929;47.490;19.090;2023-11-19T13:04:19;13.65;;;6.75;;
71202;SDS011;58929;47.490;19.090;2023-11-19T13:06:47;14.02;;;6.72;;
71202;SDS011;58929;47.490;19.090;2023-11-19T13:09:21;26.85;;;9.02;;
71202;SDS011;58929;47.490;19.090;2023-11-19T13:11:50;13.07;;;7.00;;
71202;SDS011;58929;47.490;19.090;2023-11-19T13:14:20;13.90;;;6.55;;
71202;SDS011;58929;47.490;19.090;2023-11-19T13:16:48;11.55;;;6.82;;
71202;SDS011;58929;47.490;19.090;2023-11-19T13:19:17;15.13;;;6.78;;
71202;SDS011;58929;47.490;19.090;2023-11-19T13:21:47;11.38;;;6.18;;
71202;SDS011;58929;47.490;19.090;2023-11-19T13:24:15;17.77;;;6.63;;
71202;SDS011;58929;47.490;19.090;2023-11-19T13:26:43;16.20;;;6.22;;
71202;SDS011;58929;47.490;19.090;2023-11-19T13:29:11;14.13;;;6.40;;
71202;SDS011;58929;47.490;19.090;2023-11-19T13:31:39;12.07;;;6.03;;
71202;SDS011;58929;47.490;19.090;2023-11-19T13:34:07;10.38;;;5.38;;
71202;SDS011;58929;47.490;19.090;2023-11-19T13:36:35;13.05;;;6.25;;
71202;SDS011;58929;47.490;19.090;2023-11-19T13:39:05;12.73;;;6.13;;
71202;SDS011;58929;47.490;19.090;2023-11-19T13:41:33;11.18;;;6.25;;
71202;SDS011;58929;47.490;19.090;2023-11-19T13:44:01;15.20;;;5.90;;
71202;SDS011;58929;47.490;19.090;2023-11-19T13:46:31;10.65;;;5.80;;
71202;SDS011;58929;47.490;19.090;2023-11-19T13:48:59;12.00;;;5.20;;
71202;SDS011;58929;47.490;19.090;2023-11-19T13:51:27;13.98;;;6.40;;
71202;SDS011;58929;47.490;19.090;2023-11-19T13:53:55;12.75;;;5.78;;
71202;SDS011;58929;47.490;19.090;2023-11-19T13:56:25;13.57;;;5.72;;
71202;SDS011;58929;47.490;19.090;2023-11-19T13:58:54;9.95;;;5.78;;
71202;SDS011;58929;47.490;19.090;2023-11-19T14:01:22;10.30;;;5.22;;
71202;SDS011;58929;47.490;19.090;2023-11-19T14:03:52;13.73;;;5.85;;
71202;SDS011;58929;47.490;19.090;2023-11-19T14:06:20;11.68;;;5.32;;
71202;SDS011;58929;47.490;19.090;2023-11-19T14:08:48;13.57;;;5.75;;
71202;SDS011;58929;47.490;19.090;2023-11-19T14:11:17;12.65;;;5.60;;
71202;SDS011;58929;47.490;19.090;2023-11-19T14:13:46;13.57;;;5.97;;
71202;SDS011;58929;47.490;19.090;2023-11-19T14:16:15;12.50;;;6.13;;
71202;SDS011;58929;47.490;19.090;2023-11-19T14:18:43;10.70;;;5.32;;
71202;SDS011;58929;47.490;19.090;2023-11-19T14:21:11;9.77;;;5.43;;
71202;SDS011;58929;47.490;19.090;2023-11-19T14:23:40;11.50;;;5.32;;
71202;SDS011;58929;47.490;19.090;2023-11-19T14:26:07;35.35;;;14.98;;
71202;SDS011;58929;47.490;19.090;2023-11-19T14:28:35;23.50;;;9.43;;
71202;SDS011;58929;47.490;19.090;2023-11-19T14:31:23;35.92;;;13.52;;
71202;SDS011;58929;47.490;19.090;2023-11-19T14:33:51;24.92;;;13.80;;
71202;SDS011;58929;47.490;19.090;2023-11-19T14:36:22;19.92;;;9.73;;
71202;SDS011;58929;47.490;19.090;2023-11-19T14:38:49;15.50;;;7.90;;
71202;SDS011;58929;47.490;19.090;2023-11-19T14:41:17;13.52;;;7.00;;
71202;SDS011;58929;47.490;19.090;2023-11-19T14:43:45;11.93;;;6.13;;
71202;SDS011;58929;47.490;19.090;2023-11-19T14:46:14;13.40;;;6.47;;